Cleveland, Ohio
Traffic Map
Current Weather Conditions
Cleveland, Ohio
Few Clouds
Few Clouds
91°
Feels Like: 91°
Wind Chill: 91° Ceiling: Unl
Heat Index: 91° Visibility: 10mi
Dew Point: 62° Wind: 18mph
Humidity: 38% Direction: 200° (SSW)
Pressure: 29.81in Gusts: 28mph
Raw Report DataKBKL 021953Z 20016G24KT 10SM FEW055 33/17 A2981 RMK AO2 RAB36E53 SLP090 P0000 T03280167
Traffic Incident Summary
Active as of:
Severity:
Category:
InformationThere was an issue retrieving the traffic information for this location. Please try a different location or try again shortly.
Advertisements
Track Severe Weather on mobile